createdAt,value
2019-02-27T00:00:52.874Z,50.00
2019-02-27T00:02:56.137Z,50.00
2019-02-27T00:04:58.750Z,50.00
2019-02-27T00:07:02.422Z,50.20
2019-02-27T00:09:05.397Z,50.10
2019-02-27T00:11:09.953Z,50.20
2019-02-27T00:13:12.107Z,50.40
2019-02-27T00:15:15.022Z,50.40
2019-02-27T00:17:18.811Z,50.50
2019-02-27T00:19:21.088Z,50.50
2019-02-27T00:21:24.755Z,50.70
2019-02-27T00:23:27.877Z,50.60
2019-02-27T00:25:30.794Z,50.70
2019-02-27T00:27:33.701Z,50.70
2019-02-27T00:29:37.183Z,50.70
2019-02-27T00:31:40.111Z,50.70
2019-02-27T00:33:43.781Z,50.80
2019-02-27T00:35:46.893Z,50.80
2019-02-27T00:37:52.127Z,51.00
2019-02-27T00:39:53.522Z,51.00
2019-02-27T00:41:56.570Z,51.00
2019-02-27T00:44:01.490Z,51.00
2019-02-27T00:46:02.522Z,51.10
2019-02-27T00:48:06.246Z,51.20
2019-02-27T00:50:09.187Z,51.10
2019-02-27T00:52:12.188Z,51.20
2019-02-27T00:54:15.909Z,51.30
2019-02-27T00:56:18.850Z,51.30
2019-02-27T00:58:21.766Z,51.30
2019-02-27T01:00:24.731Z,51.40
2019-02-27T01:02:28.410Z,51.40
2019-02-27T01:04:34.983Z,51.50
2019-02-27T01:06:35.238Z,51.40
2019-02-27T01:08:38.290Z,51.40
2019-02-27T01:10:42.884Z,51.70
2019-02-27T01:12:46.134Z,51.70
2019-02-27T01:14:49.059Z,51.60
2019-02-27T01:16:51.978Z,51.70
2019-02-27T01:18:56.126Z,51.90
2019-02-27T01:20:59.035Z,51.90
2019-02-27T01:23:01.954Z,51.90
2019-02-27T01:25:05.148Z,52.00
2019-02-27T01:27:08.820Z,52.10
2019-02-27T01:29:11.745Z,52.10
2019-02-27T01:31:14.695Z,52.10
2019-02-27T01:33:18.370Z,52.30
2019-02-27T01:35:21.386Z,52.20
2019-02-27T01:37:25.113Z,52.40
2019-02-27T01:39:28.022Z,52.40
2019-02-27T01:41:30.939Z,52.40
2019-02-27T01:43:36.889Z,53.00
2019-02-27T01:45:37.706Z,52.50
2019-02-27T01:47:42.123Z,52.60
2019-02-27T01:49:48.888Z,52.60
2019-02-27T01:51:48.087Z,52.60
2019-02-27T01:53:51.100Z,52.60
2019-02-27T01:55:56.368Z,52.70
2019-02-27T01:57:58.588Z,52.70
2019-02-27T02:00:02.279Z,52.80
2019-02-27T02:02:05.230Z,52.80
2019-02-27T02:04:08.166Z,52.90
2019-02-27T02:06:11.242Z,53.00
2019-02-27T02:08:15.006Z,53.10
2019-02-27T02:10:17.959Z,53.10
2019-02-27T02:12:20.869Z,53.20
2019-02-27T02:14:46.482Z,53.20
2019-02-27T02:16:55.285Z,53.20
2019-02-27T02:19:18.993Z,53.10
2019-02-27T02:21:27.399Z,53.20
2019-02-27T02:23:44.983Z,53.10
2019-02-27T02:25:49.579Z,53.30
2019-02-27T02:28:07.172Z,53.30
2019-02-27T02:30:15.784Z,53.40
2019-02-27T02:32:23.291Z,53.40
2019-02-27T02:34:31.684Z,53.50
2019-02-27T02:36:41.410Z,53.50
2019-02-27T02:38:48.810Z,53.50
2019-02-27T02:41:10.313Z,53.70
2019-02-27T02:43:25.103Z,53.70
2019-02-27T02:45:33.051Z,53.70
2019-02-27T02:47:35.143Z,53.70
2019-02-27T02:49:53.944Z,53.80
2019-02-27T02:52:13.546Z,53.90
2019-02-27T02:54:37.903Z,53.80
2019-02-27T02:56:48.529Z,53.80
2019-02-27T02:59:14.235Z,53.80
2019-02-27T03:01:18.667Z,53.90
2019-02-27T03:03:35.980Z,53.80
2019-02-27T03:05:39.826Z,54.00
2019-02-27T03:07:52.513Z,54.10
2019-02-27T03:10:07.358Z,54.30
2019-02-27T03:12:18.349Z,54.20
2019-02-27T03:14:29.971Z,54.30
2019-02-27T03:16:50.734Z,54.20
2019-02-27T03:19:12.112Z,54.90
2019-02-27T03:21:20.227Z,54.40
2019-02-27T03:23:25.186Z,54.30
2019-02-27T03:25:47.210Z,54.70
2019-02-27T03:27:54.732Z,55.30
2019-02-27T03:30:07.388Z,54.70
2019-02-27T03:32:13.750Z,54.70
2019-02-27T03:34:50.934Z,54.70
2019-02-27T03:37:05.264Z,54.90
2019-02-27T03:39:08.977Z,54.70
2019-02-27T03:41:22.539Z,54.70
2019-02-27T03:43:37.354Z,54.90
2019-02-27T03:45:46.084Z,55.00
2019-02-27T03:47:52.172Z,55.00
2019-02-27T03:50:15.052Z,55.20
2019-02-27T03:52:21.997Z,55.30
2019-02-27T03:54:32.593Z,55.40
2019-02-27T03:56:58.041Z,55.20
2019-02-27T03:59:05.569Z,55.30
2019-02-27T04:01:30.075Z,55.20
2019-02-27T04:03:44.133Z,55.40
2019-02-27T04:06:11.745Z,55.40
2019-02-27T04:08:25.994Z,55.50
2019-02-27T04:10:31.305Z,55.60
2019-02-27T04:12:32.651Z,55.50
2019-02-27T04:14:40.208Z,55.60
2019-02-27T04:16:38.409Z,55.70
2019-02-27T04:18:41.392Z,55.80
2019-02-27T04:20:49.678Z,55.80
2019-02-27T04:22:47.160Z,55.90
2019-02-27T04:24:56.416Z,56.00
2019-02-27T04:26:54.508Z,55.90
2019-02-27T04:29:01.432Z,55.90
2019-02-27T04:31:01.237Z,55.80
2019-02-27T04:33:04.146Z,55.90
2019-02-27T04:35:07.770Z,56.00
2019-02-27T04:37:10.651Z,55.90
2019-02-27T04:39:13.590Z,56.00
2019-02-27T04:41:18.144Z,56.00
2019-02-27T04:43:20.188Z,56.10
2019-02-27T04:45:23.855Z,56.40
2019-02-27T04:47:29.251Z,56.10
2019-02-27T04:49:29.752Z,56.20
2019-02-27T04:51:33.403Z,56.20
2019-02-27T04:53:36.284Z,56.20
2019-02-27T04:55:39.191Z,56.20
2019-02-27T04:57:42.039Z,56.30
2019-02-27T04:59:44.914Z,56.30
2019-02-27T05:01:48.119Z,56.20
2019-02-27T05:03:51.020Z,56.30
2019-02-27T05:05:53.887Z,57.00
2019-02-27T05:07:56.772Z,56.30
2019-02-27T05:09:59.639Z,56.40
2019-02-27T05:12:02.519Z,56.40
2019-02-27T05:14:06.236Z,56.50
2019-02-27T05:16:09.124Z,56.50
2019-02-27T05:18:13.495Z,56.60
2019-02-27T05:20:16.693Z,57.20
2019-02-27T05:22:19.579Z,56.60
2019-02-27T05:24:22.455Z,56.70
2019-02-27T05:26:27.251Z,56.80
2019-02-27T05:28:28.443Z,56.90
2019-02-27T05:30:31.319Z,56.80
2019-02-27T05:32:34.222Z,56.80
2019-02-27T05:34:38.491Z,57.40
2019-02-27T05:36:41.406Z,56.80
2019-02-27T05:38:44.388Z,56.90
2019-02-27T05:40:47.252Z,56.90
2019-02-27T05:42:50.243Z,56.90
2019-02-27T05:44:55.872Z,57.00
2019-02-27T05:46:56.115Z,57.00
2019-02-27T05:48:59.239Z,57.10
2019-02-27T05:51:04.923Z,57.30
2019-02-27T05:53:06.459Z,57.20
2019-02-27T05:55:09.891Z,57.30
2019-02-27T05:57:13.687Z,57.20
2019-02-27T05:59:16.559Z,57.20
2019-02-27T06:01:19.491Z,57.30
2019-02-27T06:03:22.461Z,57.40
2019-02-27T06:05:26.187Z,57.60
2019-02-27T06:07:29.579Z,57.60
2019-02-27T06:09:33.201Z,57.60
2019-02-27T06:11:36.212Z,57.60
2019-02-27T06:13:39.100Z,57.60
2019-02-27T06:15:41.955Z,57.60
2019-02-27T06:17:48.826Z,57.70
2019-02-27T06:19:47.842Z,57.80
2019-02-27T06:21:50.727Z,57.90
2019-02-27T06:23:54.393Z,58.40
2019-02-27T06:25:59.378Z,57.90
2019-02-27T06:28:01.140Z,58.50
2019-02-27T06:30:04.095Z,58.10
2019-02-27T06:32:11.920Z,58.10
2019-02-27T06:34:11.730Z,58.10
2019-02-27T06:36:14.779Z,58.10
2019-02-27T06:38:17.667Z,58.20
2019-02-27T06:40:20.636Z,58.20
2019-02-27T06:42:23.575Z,58.20
2019-02-27T06:44:27.190Z,58.30
2019-02-27T06:46:30.835Z,58.20
2019-02-27T06:48:34.484Z,58.20
2019-02-27T06:50:37.362Z,58.20
2019-02-27T06:52:42.505Z,58.20
2019-02-27T06:54:44.783Z,58.10
2019-02-27T06:56:47.681Z,58.10
2019-02-27T06:58:50.736Z,58.00
2019-02-27T07:00:54.703Z,58.10
2019-02-27T07:02:57.875Z,58.00
2019-02-27T07:05:01.559Z,58.10
2019-02-27T07:07:05.079Z,58.00
2019-02-27T07:09:11.313Z,58.20
2019-02-27T07:11:11.744Z,58.20
2019-02-27T07:13:15.840Z,58.20
2019-02-27T07:15:18.958Z,58.20
2019-02-27T07:17:22.623Z,58.70
2019-02-27T07:19:25.619Z,58.30
2019-02-27T07:21:32.574Z,58.30
2019-02-27T07:23:32.187Z,58.30
2019-02-27T07:25:35.098Z,58.50
2019-02-27T07:27:38.759Z,58.60
2019-02-27T07:29:42.912Z,58.50
2019-02-27T07:31:45.333Z,59.10
2019-02-27T07:33:48.872Z,58.60
2019-02-27T07:35:52.520Z,59.00
2019-02-27T07:37:55.419Z,59.00
2019-02-27T07:39:58.775Z,59.10
2019-02-27T07:42:02.447Z,59.10
2019-02-27T07:44:06.103Z,59.20
2019-02-27T07:46:09.017Z,59.10
2019-02-27T07:48:12.684Z,59.10
2019-02-27T07:50:16.223Z,59.10
2019-02-27T07:52:21.074Z,59.30
2019-02-27T07:54:23.973Z,59.00
2019-02-27T07:56:27.834Z,59.10
2019-02-27T07:58:33.666Z,59.10
2019-02-27T08:00:35.061Z,59.00
2019-02-27T08:02:37.979Z,59.00
2019-02-27T08:04:40.868Z,59.00
2019-02-27T08:06:43.755Z,59.00
2019-02-27T08:08:46.768Z,59.10
2019-02-27T08:10:50.255Z,59.10
2019-02-27T08:12:56.536Z,59.10
2019-02-27T08:14:56.833Z,59.10
2019-02-27T08:17:00.516Z,59.10
2019-02-27T08:19:03.824Z,59.10
2019-02-27T08:21:07.495Z,59.20
2019-02-27T08:23:10.372Z,59.10
2019-02-27T08:25:15.722Z,59.10
2019-02-27T08:27:19.409Z,59.00
2019-02-27T08:29:22.303Z,58.90
2019-02-27T08:31:28.157Z,59.20
2019-02-27T08:33:28.843Z,58.80
2019-02-27T08:35:32.696Z,58.60
2019-02-27T08:37:36.958Z,58.60
2019-02-27T08:39:39.835Z,58.60
2019-02-27T08:41:42.744Z,58.50
2019-02-27T08:43:45.631Z,58.40
2019-02-27T08:45:48.852Z,58.40
2019-02-27T08:47:52.523Z,58.30
2019-02-27T08:49:58.010Z,58.30
2019-02-27T08:51:59.212Z,58.10
2019-02-27T08:54:02.079Z,58.10
2019-02-27T08:56:06.439Z,58.30
2019-02-27T08:58:09.356Z,57.90
2019-02-27T09:00:24.473Z,57.80
2019-02-27T09:02:29.477Z,57.50
2019-02-27T09:04:31.049Z,57.40
2019-02-27T09:06:34.016Z,57.40
2019-02-27T09:08:36.932Z,57.50
2019-02-27T09:10:39.804Z,57.30
2019-02-27T09:12:45.447Z,57.30
2019-02-27T09:14:45.884Z,57.20
2019-02-27T09:16:49.030Z,57.20
2019-02-27T09:18:51.921Z,57.10
2019-02-27T09:20:55.604Z,56.90
2019-02-27T09:22:58.494Z,56.80
2019-02-27T09:25:02.168Z,56.60
2019-02-27T09:27:05.169Z,56.60
2019-02-27T09:29:08.552Z,56.50
2019-02-27T09:31:12.265Z,56.50
2019-02-27T09:33:17.017Z,56.60
2019-02-27T09:35:18.720Z,56.50
2019-02-27T09:37:21.630Z,56.40
2019-02-27T09:39:25.284Z,56.30
2019-02-27T09:41:28.176Z,56.30
2019-02-27T09:43:32.283Z,56.70
2019-02-27T09:45:35.437Z,56.50
2019-02-27T09:47:37.831Z,56.50
2019-02-27T09:49:41.531Z,56.20
2019-02-27T09:51:44.582Z,56.30
2019-02-27T09:53:47.507Z,57.00
2019-02-27T09:55:53.492Z,57.00
2019-02-27T09:57:54.211Z,56.50
2019-02-27T09:59:57.117Z,56.40
2019-02-27T10:02:00.903Z,55.30
2019-02-27T10:04:04.127Z,55.20
2019-02-27T10:06:08.756Z,55.10
2019-02-27T10:08:09.945Z,55.00
2019-02-27T10:10:12.975Z,54.90
2019-02-27T10:12:17.311Z,54.70
2019-02-27T10:14:20.356Z,54.60
2019-02-27T10:16:23.245Z,54.50
2019-02-27T10:18:26.899Z,54.60
2019-02-27T10:20:30.116Z,54.50
2019-02-27T10:22:34.642Z,54.30
2019-02-27T10:24:38.295Z,54.30
2019-02-27T10:26:41.716Z,54.00
2019-02-27T10:28:44.612Z,54.00
2019-02-27T10:30:49.934Z,53.70
2019-02-27T10:32:51.167Z,53.70
2019-02-27T10:34:54.502Z,53.60
2019-02-27T10:36:57.886Z,53.30
2019-02-27T10:39:02.145Z,53.20
2019-02-27T10:41:04.551Z,52.80
2019-02-27T10:43:07.556Z,52.80
2019-02-27T10:45:11.661Z,52.40
2019-02-27T10:47:16.208Z,52.30
2019-02-27T10:49:21.524Z,52.10
2019-02-27T10:51:22.567Z,52.30
2019-02-27T10:53:27.359Z,52.30
2019-02-27T10:55:28.342Z,52.30
2019-02-27T10:57:32.509Z,52.30
2019-02-27T10:59:34.171Z,52.40
2019-02-27T11:01:37.848Z,52.10
2019-02-27T11:03:40.952Z,52.00
2019-02-27T11:05:43.868Z,51.70
2019-02-27T11:07:46.772Z,51.30
2019-02-27T11:09:49.920Z,51.10
2019-02-27T11:11:53.948Z,50.80
2019-02-27T11:13:56.443Z,50.70
2019-02-27T11:15:59.449Z,50.40
2019-02-27T11:18:05.562Z,50.20
2019-02-27T11:20:05.443Z,49.80
2019-02-27T11:22:09.119Z,49.10
2019-02-27T11:24:14.523Z,49.00
2019-02-27T11:26:15.887Z,49.00
2019-02-27T11:28:19.005Z,48.90
2019-02-27T11:30:24.219Z,47.90
2019-02-27T11:32:27.112Z,47.80
2019-02-27T11:34:30.917Z,47.20
2019-02-27T11:36:35.056Z,47.40
2019-02-27T11:38:37.803Z,47.00
2019-02-27T11:40:42.670Z,46.60
2019-02-27T11:42:44.359Z,46.80
2019-02-27T11:44:49.441Z,46.80
2019-02-27T11:46:58.399Z,46.70
2019-02-27T11:48:53.067Z,46.80
2019-02-27T11:50:56.033Z,46.30
2019-02-27T11:53:02.763Z,45.40
2019-02-27T11:55:03.480Z,45.00
2019-02-27T11:57:07.319Z,44.50
2019-02-27T11:59:12.959Z,43.80
2019-02-27T12:01:13.923Z,43.70
2019-02-27T12:03:16.831Z,43.40
2019-02-27T12:05:20.191Z,43.10
2019-02-27T12:07:23.875Z,42.70
2019-02-27T12:09:27.668Z,42.60
2019-02-27T12:11:31.363Z,42.60
2019-02-27T12:13:34.860Z,42.40
2019-02-27T12:15:37.232Z,42.50
2019-02-27T12:17:40.923Z,42.10
2019-02-27T12:19:45.191Z,42.00
2019-02-27T12:21:46.698Z,42.20
2019-02-27T12:23:51.251Z,42.70
2019-02-27T12:25:54.147Z,42.10
2019-02-27T12:27:57.041Z,42.10
2019-02-27T12:30:02.481Z,42.10
2019-02-27T12:32:02.951Z,42.20
2019-02-27T12:34:06.666Z,42.60
2019-02-27T12:36:10.353Z,41.90
2019-02-27T12:38:13.284Z,41.80
2019-02-27T12:40:16.968Z,41.90
2019-02-27T12:42:19.896Z,42.00
2019-02-27T12:44:22.879Z,42.00
2019-02-27T12:46:25.763Z,42.10
2019-02-27T12:48:28.879Z,42.10
2019-02-27T12:50:32.524Z,41.80
2019-02-27T12:52:35.414Z,41.70
2019-02-27T12:54:38.431Z,41.60
2019-02-27T12:56:44.527Z,41.90
2019-02-27T12:58:46.239Z,41.20
2019-02-27T13:00:49.919Z,40.70
2019-02-27T13:02:52.812Z,40.70
2019-02-27T13:04:57.930Z,40.50
2019-02-27T13:06:59.690Z,40.40
2019-02-27T13:09:03.362Z,39.90
2019-02-27T13:11:07.980Z,39.90
2019-02-27T13:13:10.784Z,39.70
2019-02-27T13:15:15.217Z,39.50
2019-02-27T13:17:21.451Z,39.30
2019-02-27T13:19:23.757Z,39.20
2019-02-27T13:21:27.427Z,39.10
2019-02-27T13:23:30.750Z,39.00
2019-02-27T13:25:34.404Z,38.80
2019-02-27T13:27:37.413Z,38.70
2019-02-27T13:29:41.103Z,39.40
2019-02-27T13:31:45.008Z,39.90
2019-02-27T13:33:47.888Z,39.00
2019-02-27T13:35:51.729Z,39.00
2019-02-27T13:37:54.985Z,38.50
2019-02-27T13:40:00.434Z,37.90
2019-02-27T13:42:02.282Z,37.80
2019-02-27T13:44:07.951Z,37.60
2019-02-27T13:46:10.399Z,37.50
2019-02-27T13:48:14.943Z,37.00
2019-02-27T13:50:22.209Z,37.40
2019-02-27T13:52:22.315Z,36.50
2019-02-27T13:54:25.295Z,36.50
2019-02-27T13:56:28.300Z,36.60
2019-02-27T13:58:35.550Z,36.50
2019-02-27T14:00:36.783Z,36.50
2019-02-27T14:02:39.704Z,36.10
2019-02-27T14:04:42.604Z,35.90
2019-02-27T14:06:47.433Z,35.70
2019-02-27T14:08:48.444Z,35.60
2019-02-27T14:10:53.384Z,36.50
2019-02-27T14:12:55.817Z,35.60
2019-02-27T14:14:58.708Z,35.50
2019-02-27T14:17:03.514Z,36.30
2019-02-27T14:19:06.713Z,36.30
2019-02-27T14:21:09.720Z,36.30
2019-02-27T14:23:14.591Z,35.60
2019-02-27T14:25:17.076Z,35.50
2019-02-27T14:27:20.368Z,35.20
2019-02-27T14:29:23.274Z,35.80
2019-02-27T14:31:27.220Z,35.90
2019-02-27T14:33:29.562Z,36.30
2019-02-27T14:35:36.318Z,35.30
2019-02-27T14:37:36.910Z,35.60
2019-02-27T14:39:39.942Z,34.90
2019-02-27T14:41:47.985Z,35.10
2019-02-27T14:43:46.518Z,35.00
2019-02-27T14:45:50.795Z,35.10
2019-02-27T14:47:52.384Z,34.90
2019-02-27T14:49:55.267Z,34.00
2019-02-27T14:51:58.172Z,33.60
2019-02-27T14:54:02.544Z,33.30
2019-02-27T14:56:09.229Z,33.30
2019-02-27T14:58:08.519Z,33.20
2019-02-27T15:00:19.448Z,31.80
2019-02-27T15:02:22.990Z,30.50
2019-02-27T15:04:25.360Z,29.50
2019-02-27T15:06:30.071Z,29.70
2019-02-27T15:08:35.199Z,30.00
2019-02-27T15:10:41.117Z,29.90
2019-02-27T15:12:41.348Z,29.10
2019-02-27T15:14:44.243Z,28.50
2019-02-27T15:16:49.296Z,28.60
2019-02-27T15:18:52.858Z,28.70
2019-02-27T15:20:53.113Z,28.90
2019-02-27T15:22:56.204Z,29.20
2019-02-27T15:24:59.123Z,29.20
2019-02-27T15:27:02.464Z,29.30
2019-02-27T15:29:05.679Z,29.50
2019-02-27T15:31:09.023Z,29.70
2019-02-27T15:33:11.939Z,29.70
2019-02-27T15:35:20.798Z,29.70
2019-02-27T15:37:18.826Z,29.50
2019-02-27T15:39:22.480Z,29.70
2019-02-27T15:41:25.513Z,29.60
2019-02-27T15:43:29.233Z,30.10
2019-02-27T15:45:32.124Z,30.00
2019-02-27T15:47:35.044Z,30.00
2019-02-27T15:49:37.935Z,30.00
2019-02-27T15:51:40.881Z,29.90
2019-02-27T15:53:49.747Z,30.00
2019-02-27T15:55:47.131Z,30.20
2019-02-27T15:57:53.676Z,30.10
2019-02-27T15:59:53.704Z,30.00
2019-02-27T16:02:02.407Z,30.50
2019-02-27T16:04:00.239Z,30.40
2019-02-27T16:06:05.553Z,30.80
2019-02-27T16:08:06.103Z,30.70
2019-02-27T16:10:09.959Z,30.60
2019-02-27T16:12:12.942Z,30.60
2019-02-27T16:14:16.587Z,30.00
2019-02-27T16:16:23.354Z,29.90
2019-02-27T16:18:22.478Z,29.90
2019-02-27T16:20:25.461Z,30.40
2019-02-27T16:22:30.296Z,30.60
2019-02-27T16:24:32.863Z,30.90
2019-02-27T16:26:35.987Z,31.00
2019-02-27T16:28:38.868Z,31.20
2019-02-27T16:30:41.805Z,31.10
2019-02-27T16:32:48.461Z,31.20
2019-02-27T16:34:47.706Z,31.60
2019-02-27T16:36:51.382Z,31.70
2019-02-27T16:38:55.047Z,31.40
2019-02-27T16:40:57.950Z,31.40
2019-02-27T16:43:00.933Z,31.90
2019-02-27T16:45:06.123Z,31.90
2019-02-27T16:47:09.516Z,31.80
2019-02-27T16:49:13.067Z,31.70
2019-02-27T16:51:15.944Z,31.40
2019-02-27T16:53:19.635Z,31.40
2019-02-27T16:55:23.435Z,31.30
2019-02-27T16:57:26.700Z,31.20
2019-02-27T16:59:29.596Z,30.70
2019-02-27T17:01:32.909Z,30.70
2019-02-27T17:03:35.799Z,30.80
2019-02-27T17:05:43.134Z,31.10
2019-02-27T17:07:43.390Z,31.00
2019-02-27T17:09:46.267Z,30.70
2019-02-27T17:11:49.780Z,30.80
2019-02-27T17:13:52.750Z,31.40
2019-02-27T17:15:55.623Z,31.60
2019-02-27T17:17:58.847Z,31.70
2019-02-27T17:20:02.710Z,33.00
2019-02-27T17:22:05.596Z,32.30
2019-02-27T17:24:09.999Z,32.20
2019-02-27T17:26:13.025Z,32.20
2019-02-27T17:28:16.322Z,32.20
2019-02-27T17:30:20.755Z,32.70
2019-02-27T17:32:23.899Z,32.70
2019-02-27T17:34:27.592Z,33.50
2019-02-27T17:36:31.972Z,33.50
2019-02-27T17:38:33.667Z,33.90
2019-02-27T17:40:38.063Z,34.30
2019-02-27T17:42:40.991Z,34.30
2019-02-27T17:44:44.895Z,35.10
2019-02-27T17:46:48.573Z,34.50
2019-02-27T17:48:51.430Z,34.80
2019-02-27T17:50:54.530Z,34.90
2019-02-27T17:52:57.551Z,35.00
2019-02-27T17:55:03.473Z,35.20
2019-02-27T17:57:04.537Z,35.20
2019-02-27T17:59:09.429Z,36.00
2019-02-27T18:01:13.840Z,36.00
2019-02-27T18:03:15.616Z,36.90
2019-02-27T18:05:18.591Z,36.20
2019-02-27T18:07:21.575Z,36.80
2019-02-27T18:09:26.466Z,36.30
2019-02-27T18:11:28.371Z,36.30
2019-02-27T18:13:35.338Z,36.50
2019-02-27T18:15:35.763Z,36.40
2019-02-27T18:17:39.463Z,36.80
2019-02-27T18:19:43.863Z,37.60
2019-02-27T18:21:47.689Z,37.30
2019-02-27T18:23:51.724Z,37.40
2019-02-27T18:25:55.526Z,37.40
2019-02-27T18:27:59.933Z,37.50
2019-02-27T18:30:02.451Z,37.60
2019-02-27T18:32:06.572Z,37.80
2019-02-27T18:34:09.255Z,37.70
2019-02-27T18:36:12.168Z,37.80
2019-02-27T18:38:15.191Z,38.00
2019-02-27T18:40:18.163Z,38.00
2019-02-27T18:42:21.773Z,38.20
2019-02-27T18:44:24.695Z,38.40
2019-02-27T18:46:28.079Z,38.50
2019-02-27T18:48:30.964Z,38.70
2019-02-27T18:50:34.940Z,39.50
2019-02-27T18:52:38.404Z,39.00
2019-02-27T18:54:41.146Z,39.10
2019-02-27T18:56:44.852Z,39.10
2019-02-27T18:58:48.557Z,39.10
2019-02-27T19:00:52.591Z,39.30
2019-02-27T19:02:56.232Z,39.30
2019-02-27T19:04:59.153Z,39.20
2019-02-27T19:07:02.801Z,39.30
2019-02-27T19:09:05.731Z,39.30
2019-02-27T19:11:09.415Z,39.40
2019-02-27T19:13:13.838Z,39.40
2019-02-27T19:15:17.506Z,39.50
2019-02-27T19:17:20.507Z,39.40
2019-02-27T19:19:23.643Z,39.50
2019-02-27T19:21:26.591Z,39.50
2019-02-27T19:23:29.572Z,39.70
2019-02-27T19:25:34.648Z,39.70
2019-02-27T19:27:37.633Z,39.90
2019-02-27T19:29:39.841Z,39.90
2019-02-27T19:31:43.504Z,40.80
2019-02-27T19:33:46.398Z,40.10
2019-02-27T19:35:49.395Z,40.20
2019-02-27T19:37:52.303Z,40.30
2019-02-27T19:39:56.368Z,40.60
2019-02-27T19:41:59.207Z,40.50
2019-02-27T19:44:02.849Z,40.80
2019-02-27T19:46:06.933Z,40.70
2019-02-27T19:48:09.280Z,40.90
2019-02-27T19:50:12.170Z,41.00
2019-02-27T19:52:15.055Z,41.00
2019-02-27T19:54:18.799Z,41.20
2019-02-27T19:56:21.792Z,41.20
2019-02-27T19:58:24.698Z,41.30
2019-02-27T20:00:33.844Z,41.50
2019-02-27T20:02:32.033Z,41.50
2019-02-27T20:04:35.189Z,41.60
2019-02-27T20:06:38.511Z,41.60
2019-02-27T20:08:45.431Z,41.80
2019-02-27T20:10:44.819Z,41.70
2019-02-27T20:12:52.911Z,41.90
2019-02-27T20:14:50.714Z,41.90
2019-02-27T20:16:55.311Z,42.00
2019-02-27T20:18:56.507Z,42.00
2019-02-27T20:20:59.398Z,42.10
2019-02-27T20:23:02.311Z,42.20
2019-02-27T20:25:20.100Z,42.40
2019-02-27T20:27:25.893Z,42.30
2019-02-27T20:29:25.955Z,42.30
2019-02-27T20:31:28.991Z,42.50
2019-02-27T20:33:34.236Z,42.50
2019-02-27T20:35:34.957Z,42.50
2019-02-27T20:37:40.567Z,42.50
2019-02-27T20:39:41.509Z,42.60
2019-02-27T20:41:44.411Z,42.60
2019-02-27T20:43:48.336Z,43.20
2019-02-27T20:45:50.985Z,42.60
2019-02-27T20:47:57.651Z,42.60
2019-02-27T20:49:56.944Z,42.70
2019-02-27T20:51:59.822Z,42.60
2019-02-27T20:54:02.797Z,42.70
2019-02-27T20:56:06.425Z,42.80
2019-02-27T20:58:09.639Z,42.80
2019-02-27T21:00:13.987Z,43.10
2019-02-27T21:02:18.733Z,43.00
2019-02-27T21:04:19.784Z,42.90
2019-02-27T21:06:22.779Z,43.00
2019-02-27T21:08:26.450Z,43.20
2019-02-27T21:10:30.051Z,43.20
2019-02-27T21:12:32.947Z,43.20
2019-02-27T21:14:36.615Z,43.50
2019-02-27T21:16:40.171Z,43.30
2019-02-27T21:18:43.199Z,44.20
2019-02-27T21:20:46.580Z,43.50
2019-02-27T21:22:49.811Z,44.30
2019-02-27T21:24:52.693Z,44.30
2019-02-27T21:26:57.270Z,44.40
2019-02-27T21:28:59.014Z,44.40
2019-02-27T21:31:01.416Z,44.40
2019-02-27T21:33:04.558Z,44.30
2019-02-27T21:35:08.328Z,44.50
2019-02-27T21:37:11.225Z,44.40
2019-02-27T21:39:14.128Z,44.40
2019-02-27T21:41:17.029Z,44.50
2019-02-27T21:43:25.175Z,44.60
2019-02-27T21:45:23.637Z,44.80
2019-02-27T21:47:26.521Z,44.80
2019-02-27T21:49:32.096Z,44.90
2019-02-27T21:51:32.331Z,44.90
2019-02-27T21:53:35.310Z,45.00
2019-02-27T21:55:38.359Z,45.10
2019-02-27T21:57:42.030Z,45.40
2019-02-27T21:59:44.907Z,45.10
2019-02-27T22:01:49.102Z,45.00
2019-02-27T22:03:52.679Z,44.90
2019-02-27T22:05:56.174Z,44.90
2019-02-27T22:08:00.572Z,44.80
2019-02-27T22:10:04.824Z,44.90
2019-02-27T22:12:07.715Z,44.90
2019-02-27T22:14:10.734Z,45.00
2019-02-27T22:16:13.619Z,45.00
2019-02-27T22:18:17.280Z,46.00
2019-02-27T22:20:20.303Z,45.20
2019-02-27T22:22:23.183Z,45.40
2019-02-27T22:24:26.082Z,45.60
2019-02-27T22:26:29.042Z,45.70
2019-02-27T22:28:31.927Z,45.80
2019-02-27T22:30:35.020Z,45.90
2019-02-27T22:32:37.898Z,46.00
2019-02-27T22:34:40.776Z,46.10
2019-02-27T22:36:44.859Z,46.20
2019-02-27T22:38:47.410Z,46.40
2019-02-27T22:40:50.528Z,46.40
2019-02-27T22:42:53.435Z,46.40
2019-02-27T22:44:56.528Z,46.50
2019-02-27T22:46:59.399Z,46.60
2019-02-27T22:49:03.224Z,46.70
2019-02-27T22:51:06.892Z,46.80
2019-02-27T22:53:10.565Z,46.90
2019-02-27T22:55:13.880Z,46.80
2019-02-27T22:57:17.543Z,47.10
2019-02-27T22:59:20.423Z,47.00
2019-02-27T23:01:23.353Z,47.70
2019-02-27T23:03:28.469Z,47.40
2019-02-27T23:05:31.355Z,47.40
2019-02-27T23:07:35.159Z,47.90
2019-02-27T23:09:38.813Z,47.60
2019-02-27T23:11:41.780Z,47.60
2019-02-27T23:13:47.392Z,47.70
2019-02-27T23:15:48.400Z,47.90
2019-02-27T23:17:51.298Z,47.80
2019-02-27T23:19:54.205Z,47.90
2019-02-27T23:21:58.572Z,48.00
2019-02-27T23:24:01.549Z,48.00
2019-02-27T23:26:04.443Z,48.00
2019-02-27T23:28:07.330Z,48.10
2019-02-27T23:30:14.848Z,48.20
2019-02-27T23:32:13.956Z,48.20
2019-02-27T23:34:18.399Z,48.20
2019-02-27T23:36:21.882Z,48.10
2019-02-27T23:38:24.210Z,48.20
2019-02-27T23:40:27.884Z,48.10
2019-02-27T23:42:30.789Z,48.10
2019-02-27T23:44:38.259Z,48.20
2019-02-27T23:46:38.155Z,48.30
2019-02-27T23:48:41.899Z,48.30
2019-02-27T23:50:45.633Z,48.30
2019-02-27T23:52:48.544Z,48.30
2019-02-27T23:54:51.424Z,48.30
2019-02-27T23:56:54.431Z,48.40
2019-02-27T23:59:02.388Z,48.50
